sensor_id;sensor_type;location;lat;lon;timestamp;temperature;humidity
30150;DHT22;16962;48.646;9.026;2023-08-01T00:01:13;16.60;99.90
30150;DHT22;16962;48.646;9.026;2023-08-01T00:04:13;16.60;99.90
30150;DHT22;16962;48.646;9.026;2023-08-01T00:07:01;16.60;99.90
30150;DHT22;16962;48.646;9.026;2023-08-01T00:09:51;16.60;99.90
30150;DHT22;16962;48.646;9.026;2023-08-01T00:12:39;16.60;99.90
30150;DHT22;16962;48.646;9.026;2023-08-01T00:15:26;16.70;80.30
30150;DHT22;16962;48.646;9.026;2023-08-01T00:18:15;16.60;49.10
30150;DHT22;16962;48.646;9.026;2023-08-01T00:21:04;16.60;44.90
30150;DHT22;16962;48.646;9.026;2023-08-01T00:23:57;16.60;94.20
30150;DHT22;16962;48.646;9.026;2023-08-01T00:26:54;16.60;56.10
30150;DHT22;16962;48.646;9.026;2023-08-01T00:29:46;16.60;1.00
30150;DHT22;16962;48.646;9.026;2023-08-01T00:32:41;16.70;99.90
30150;DHT22;16962;48.646;9.026;2023-08-01T00:35:52;16.70;99.90
30150;DHT22;16962;48.646;9.026;2023-08-01T00:38:54;16.70;99.90
30150;DHT22;16962;48.646;9.026;2023-08-01T00:41:41;16.70;99.90
30150;DHT22;16962;48.646;9.026;2023-08-01T00:44:39;16.70;99.90
30150;DHT22;16962;48.646;9.026;2023-08-01T00:47:28;16.60;99.90
30150;DHT22;16962;48.646;9.026;2023-08-01T00:50:18;16.60;99.90
30150;DHT22;16962;48.646;9.026;2023-08-01T00:53:10;16.60;99.90
30150;DHT22;16962;48.646;9.026;2023-08-01T00:56:05;16.60;99.90
30150;DHT22;16962;48.646;9.026;2023-08-01T00:59:01;16.70;99.90
30150;DHT22;16962;48.646;9.026;2023-08-01T01:01:51;16.80;4.00
30150;DHT22;16962;48.646;9.026;2023-08-01T01:04:56;16.80;1.00
30150;DHT22;16962;48.646;9.026;2023-08-01T01:07:44;16.90;99.90
30150;DHT22;16962;48.646;9.026;2023-08-01T01:10:31;16.90;1.00
30150;DHT22;16962;48.646;9.026;2023-08-01T01:13:28;16.60;99.90
30150;DHT22;16962;48.646;9.026;2023-08-01T01:16:15;16.30;1.00
30150;DHT22;16962;48.646;9.026;2023-08-01T01:19:12;16.10;33.10
30150;DHT22;16962;48.646;9.026;2023-08-01T01:22:07;16.00;10.90
30150;DHT22;16962;48.646;9.026;2023-08-01T01:24:57;15.90;99.90
30150;DHT22;16962;48.646;9.026;2023-08-01T01:27:46;15.80;99.90
30150;DHT22;16962;48.646;9.026;2023-08-01T01:30:34;15.80;99.90
30150;DHT22;16962;48.646;9.026;2023-08-01T01:33:24;15.80;99.90
30150;DHT22;16962;48.646;9.026;2023-08-01T01:36:11;15.80;99.90
30150;DHT22;16962;48.646;9.026;2023-08-01T01:38:59;15.80;99.90
30150;DHT22;16962;48.646;9.026;2023-08-01T01:41:46;15.70;99.90
30150;DHT22;16962;48.646;9.026;2023-08-01T01:44:34;15.70;99.90
30150;DHT22;16962;48.646;9.026;2023-08-01T01:47:21;15.80;99.90
30150;DHT22;16962;48.646;9.026;2023-08-01T01:50:08;15.80;99.90
30150;DHT22;16962;48.646;9.026;2023-08-01T01:52:56;15.90;99.90
30150;DHT22;16962;48.646;9.026;2023-08-01T01:55:43;15.90;99.90
30150;DHT22;16962;48.646;9.026;2023-08-01T01:58:30;15.90;99.90
30150;DHT22;16962;48.646;9.026;2023-08-01T02:01:20;16.00;99.90
30150;DHT22;16962;48.646;9.026;2023-08-01T02:04:07;16.00;99.90
30150;DHT22;16962;48.646;9.026;2023-08-01T02:06:54;16.00;99.90
30150;DHT22;16962;48.646;9.026;2023-08-01T02:09:48;16.20;99.90
30150;DHT22;16962;48.646;9.026;2023-08-01T02:12:38;16.20;99.90
30150;DHT22;16962;48.646;9.026;2023-08-01T02:15:25;16.40;83.30
30150;DHT22;16962;48.646;9.026;2023-08-01T02:18:17;16.40;1.00
30150;DHT22;16962;48.646;9.026;2023-08-01T02:21:04;16.40;99.90
30150;DHT22;16962;48.646;9.026;2023-08-01T02:23:51;16.50;99.90
30150;DHT22;16962;48.646;9.026;2023-08-01T02:26:38;16.50;99.90
30150;DHT22;16962;48.646;9.026;2023-08-01T02:29:28;16.40;99.90
30150;DHT22;16962;48.646;9.026;2023-08-01T02:32:18;16.40;1.00
30150;DHT22;16962;48.646;9.026;2023-08-01T02:35:05;16.30;1.00
30150;DHT22;16962;48.646;9.026;2023-08-01T02:37:54;16.40;99.90
30150;DHT22;16962;48.646;9.026;2023-08-01T02:40:42;16.40;99.90
30150;DHT22;16962;48.646;9.026;2023-08-01T02:43:30;16.40;1.00
30150;DHT22;16962;48.646;9.026;2023-08-01T02:46:17;16.50;47.80
30150;DHT22;16962;48.646;9.026;2023-08-01T02:49:07;16.60;42.40
30150;DHT22;16962;48.646;9.026;2023-08-01T02:52:00;16.60;99.90
30150;DHT22;16962;48.646;9.026;2023-08-01T02:54:51;16.70;99.90
30150;DHT22;16962;48.646;9.026;2023-08-01T02:57:38;16.80;1.00
30150;DHT22;16962;48.646;9.026;2023-08-01T03:00:25;16.80;99.90
30150;DHT22;16962;48.646;9.026;2023-08-01T03:03:13;16.90;99.90
30150;DHT22;16962;48.646;9.026;2023-08-01T03:06:01;16.90;1.00
30150;DHT22;16962;48.646;9.026;2023-08-01T03:08:50;17.00;99.90
30150;DHT22;16962;48.646;9.026;2023-08-01T03:11:41;17.10;1.00
30150;DHT22;16962;48.646;9.026;2023-08-01T03:14:28;17.10;99.90
30150;DHT22;16962;48.646;9.026;2023-08-01T03:17:16;17.10;99.90
30150;DHT22;16962;48.646;9.026;2023-08-01T03:20:04;17.10;99.90
30150;DHT22;16962;48.646;9.026;2023-08-01T03:22:52;17.20;1.00
30150;DHT22;16962;48.646;9.026;2023-08-01T03:25:39;17.20;1.00
30150;DHT22;16962;48.646;9.026;2023-08-01T03:28:30;17.20;1.00
30150;DHT22;16962;48.646;9.026;2023-08-01T03:31:17;17.20;1.00
30150;DHT22;16962;48.646;9.026;2023-08-01T03:34:05;17.30;99.90
30150;DHT22;16962;48.646;9.026;2023-08-01T03:36:56;17.50;76.40
30150;DHT22;16962;48.646;9.026;2023-08-01T03:39:45;17.50;1.00
30150;DHT22;16962;48.646;9.026;2023-08-01T03:42:35;17.30;97.90
30150;DHT22;16962;48.646;9.026;2023-08-01T03:45:23;17.20;99.90
30150;DHT22;16962;48.646;9.026;2023-08-01T03:48:11;17.30;99.90
30150;DHT22;16962;48.646;9.026;2023-08-01T03:50:58;17.20;99.90
30150;DHT22;16962;48.646;9.026;2023-08-01T03:53:49;17.20;99.90
30150;DHT22;16962;48.646;9.026;2023-08-01T03:56:56;17.10;1.00
30150;DHT22;16962;48.646;9.026;2023-08-01T03:59:44;17.10;1.00
30150;DHT22;16962;48.646;9.026;2023-08-01T04:10:33;17.00;99.90
30150;DHT22;16962;48.646;9.026;2023-08-01T04:13:31;16.90;1.00
30150;DHT22;16962;48.646;9.026;2023-08-01T04:16:24;16.90;1.00
30150;DHT22;16962;48.646;9.026;2023-08-01T04:19:11;16.90;9.90
30150;DHT22;16962;48.646;9.026;2023-08-01T04:22:04;17.00;1.00
30150;DHT22;16962;48.646;9.026;2023-08-01T04:24:52;16.90;1.00
30150;DHT22;16962;48.646;9.026;2023-08-01T04:27:43;17.00;99.90
30150;DHT22;16962;48.646;9.026;2023-08-01T04:30:32;17.00;99.90
30150;DHT22;16962;48.646;9.026;2023-08-01T04:33:20;17.00;99.90
30150;DHT22;16962;48.646;9.026;2023-08-01T04:36:07;17.00;99.90
30150;DHT22;16962;48.646;9.026;2023-08-01T04:38:54;17.00;99.90
30150;DHT22;16962;48.646;9.026;2023-08-01T04:41:42;17.00;99.90
30150;DHT22;16962;48.646;9.026;2023-08-01T04:44:29;17.00;99.90
30150;DHT22;16962;48.646;9.026;2023-08-01T04:47:17;17.00;81.20
30150;DHT22;16962;48.646;9.026;2023-08-01T04:50:05;17.00;1.00
30150;DHT22;16962;48.646;9.026;2023-08-01T04:52:52;17.00;1.00
30150;DHT22;16962;48.646;9.026;2023-08-01T04:55:40;17.10;99.90
30150;DHT22;16962;48.646;9.026;2023-08-01T04:58:27;17.10;99.90
30150;DHT22;16962;48.646;9.026;2023-08-01T05:01:15;17.20;99.90
30150;DHT22;16962;48.646;9.026;2023-08-01T05:04:05;17.20;1.00
30150;DHT22;16962;48.646;9.026;2023-08-01T05:06:53;17.30;99.90
30150;DHT22;16962;48.646;9.026;2023-08-01T05:09:43;17.30;99.90
30150;DHT22;16962;48.646;9.026;2023-08-01T05:15:19;17.30;99.90
30150;DHT22;16962;48.646;9.026;2023-08-01T05:18:10;17.30;26.20
30150;DHT22;16962;48.646;9.026;2023-08-01T05:21:23;17.30;1.00
30150;DHT22;16962;48.646;9.026;2023-08-01T05:24:15;17.30;1.00
30150;DHT22;16962;48.646;9.026;2023-08-01T05:27:16;17.30;1.00
30150;DHT22;16962;48.646;9.026;2023-08-01T05:30:06;17.30;1.00
30150;DHT22;16962;48.646;9.026;2023-08-01T05:33:01;17.30;1.00
30150;DHT22;16962;48.646;9.026;2023-08-01T05:35:52;17.30;1.00
30150;DHT22;16962;48.646;9.026;2023-08-01T05:38:45;17.40;99.90
30150;DHT22;16962;48.646;9.026;2023-08-01T05:42:02;17.40;99.90
30150;DHT22;16962;48.646;9.026;2023-08-01T05:44:54;17.40;99.90
30150;DHT22;16962;48.646;9.026;2023-08-01T05:47:55;17.50;99.90
30150;DHT22;16962;48.646;9.026;2023-08-01T05:51:03;17.50;99.90
30150;DHT22;16962;48.646;9.026;2023-08-01T05:54:25;17.60;99.90
30150;DHT22;16962;48.646;9.026;2023-08-01T05:57:20;17.50;99.90
30150;DHT22;16962;48.646;9.026;2023-08-01T06:00:12;17.50;99.90
30150;DHT22;16962;48.646;9.026;2023-08-01T06:03:00;17.50;99.90
30150;DHT22;16962;48.646;9.026;2023-08-01T06:05:49;17.50;99.90
30150;DHT22;16962;48.646;9.026;2023-08-01T06:08:47;17.50;99.90
30150;DHT22;16962;48.646;9.026;2023-08-01T06:12:31;17.40;99.90
30150;DHT22;16962;48.646;9.026;2023-08-01T06:15:51;17.40;99.90
30150;DHT22;16962;48.646;9.026;2023-08-01T06:19:06;17.30;99.90
30150;DHT22;16962;48.646;9.026;2023-08-01T06:26:24;17.40;99.90
30150;DHT22;16962;48.646;9.026;2023-08-01T06:37:25;17.30;99.90
30150;DHT22;16962;48.646;9.026;2023-08-01T06:40:12;17.20;99.90
30150;DHT22;16962;48.646;9.026;2023-08-01T06:47:31;17.20;99.90
30150;DHT22;16962;48.646;9.026;2023-08-01T06:50:41;17.10;99.90
30150;DHT22;16962;48.646;9.026;2023-08-01T06:57:35;17.00;99.90
30150;DHT22;16962;48.646;9.026;2023-08-01T07:00:26;17.10;99.90
30150;DHT22;16962;48.646;9.026;2023-08-01T07:03:16;17.20;99.90
30150;DHT22;16962;48.646;9.026;2023-08-01T07:06:04;17.40;99.90
30150;DHT22;16962;48.646;9.026;2023-08-01T07:08:54;17.40;30.00
30150;DHT22;16962;48.646;9.026;2023-08-01T07:11:41;17.50;1.00
30150;DHT22;16962;48.646;9.026;2023-08-01T07:14:31;17.50;1.00
30150;DHT22;16962;48.646;9.026;2023-08-01T07:17:49;17.30;1.00
30150;DHT22;16962;48.646;9.026;2023-08-01T07:20:38;16.80;99.90
30150;DHT22;16962;48.646;9.026;2023-08-01T07:23:26;16.50;1.00
30150;DHT22;16962;48.646;9.026;2023-08-01T07:26:17;16.40;99.90
30150;DHT22;16962;48.646;9.026;2023-08-01T07:29:07;16.50;99.90
30150;DHT22;16962;48.646;9.026;2023-08-01T07:31:58;16.70;99.90
30150;DHT22;16962;48.646;9.026;2023-08-01T07:34:49;16.80;85.60
30150;DHT22;16962;48.646;9.026;2023-08-01T07:37:54;16.90;24.00
30150;DHT22;16962;48.646;9.026;2023-08-01T07:41:05;16.90;1.00
30150;DHT22;16962;48.646;9.026;2023-08-01T07:44:16;16.70;99.90
30150;DHT22;16962;48.646;9.026;2023-08-01T07:47:15;16.20;99.90
30150;DHT22;16962;48.646;9.026;2023-08-01T07:50:10;15.90;99.90
30150;DHT22;16962;48.646;9.026;2023-08-01T07:52:58;15.70;34.00
30150;DHT22;16962;48.646;9.026;2023-08-01T07:56:18;15.60;99.90
30150;DHT22;16962;48.646;9.026;2023-08-01T08:00:13;15.50;99.90
30150;DHT22;16962;48.646;9.026;2023-08-01T08:03:17;15.50;99.90
30150;DHT22;16962;48.646;9.026;2023-08-01T08:10:15;15.30;99.90
30150;DHT22;16962;48.646;9.026;2023-08-01T08:13:22;15.20;99.90
30150;DHT22;16962;48.646;9.026;2023-08-01T08:16:25;15.20;99.90
30150;DHT22;16962;48.646;9.026;2023-08-01T08:19:12;15.10;99.90
30150;DHT22;16962;48.646;9.026;2023-08-01T08:22:03;15.10;99.90
30150;DHT22;16962;48.646;9.026;2023-08-01T08:24:53;15.20;99.90
30150;DHT22;16962;48.646;9.026;2023-08-01T08:27:58;15.20;99.90
30150;DHT22;16962;48.646;9.026;2023-08-01T08:30:51;15.30;99.90
30150;DHT22;16962;48.646;9.026;2023-08-01T08:34:00;15.30;99.90
30150;DHT22;16962;48.646;9.026;2023-08-01T08:36:48;15.50;99.90
30150;DHT22;16962;48.646;9.026;2023-08-01T08:39:57;15.60;99.90
30150;DHT22;16962;48.646;9.026;2023-08-01T08:42:49;15.80;99.90
30150;DHT22;16962;48.646;9.026;2023-08-01T08:46:03;15.80;99.90
30150;DHT22;16962;48.646;9.026;2023-08-01T08:52:46;15.70;99.90
30150;DHT22;16962;48.646;9.026;2023-08-01T08:59:07;15.80;99.90
30150;DHT22;16962;48.646;9.026;2023-08-01T09:02:28;15.90;99.90
30150;DHT22;16962;48.646;9.026;2023-08-01T09:05:20;15.90;99.90
30150;DHT22;16962;48.646;9.026;2023-08-01T09:12:41;16.00;99.90
30150;DHT22;16962;48.646;9.026;2023-08-01T09:15:59;16.10;99.90
30150;DHT22;16962;48.646;9.026;2023-08-01T09:19:54;16.00;99.90
30150;DHT22;16962;48.646;9.026;2023-08-01T09:23:24;16.20;99.90
30150;DHT22;16962;48.646;9.026;2023-08-01T09:26:42;16.40;99.90
30150;DHT22;16962;48.646;9.026;2023-08-01T09:30:06;16.40;99.90
30150;DHT22;16962;48.646;9.026;2023-08-01T09:33:12;16.30;99.90
30150;DHT22;16962;48.646;9.026;2023-08-01T09:36:02;16.30;99.90
30150;DHT22;16962;48.646;9.026;2023-08-01T09:39:06;16.30;99.90
30150;DHT22;16962;48.646;9.026;2023-08-01T09:42:01;16.20;99.90
30150;DHT22;16962;48.646;9.026;2023-08-01T09:44:51;16.20;99.90
30150;DHT22;16962;48.646;9.026;2023-08-01T09:47:39;16.10;99.90
30150;DHT22;16962;48.646;9.026;2023-08-01T09:50:34;16.10;99.90
30150;DHT22;16962;48.646;9.026;2023-08-01T09:57:11;16.30;99.90
30150;DHT22;16962;48.646;9.026;2023-08-01T10:00:12;16.50;99.90
30150;DHT22;16962;48.646;9.026;2023-08-01T10:03:59;16.40;99.90
30150;DHT22;16962;48.646;9.026;2023-08-01T10:19:55;16.70;99.90
30150;DHT22;16962;48.646;9.026;2023-08-01T10:22:44;16.90;99.90
30150;DHT22;16962;48.646;9.026;2023-08-01T10:25:37;17.00;99.90
30150;DHT22;16962;48.646;9.026;2023-08-01T10:28:53;17.00;99.90
30150;DHT22;16962;48.646;9.026;2023-08-01T10:31:52;17.30;99.90
30150;DHT22;16962;48.646;9.026;2023-08-01T10:34:51;17.30;99.90
30150;DHT22;16962;48.646;9.026;2023-08-01T10:37:42;17.20;99.90
30150;DHT22;16962;48.646;9.026;2023-08-01T10:40:47;17.50;99.90
30150;DHT22;16962;48.646;9.026;2023-08-01T10:43:44;18.10;99.90
30150;DHT22;16962;48.646;9.026;2023-08-01T10:46:59;18.40;99.90
30150;DHT22;16962;48.646;9.026;2023-08-01T10:49:52;19.70;99.90
30150;DHT22;16962;48.646;9.026;2023-08-01T10:52:45;19.90;99.90
30150;DHT22;16962;48.646;9.026;2023-08-01T10:56:05;21.20;99.90
30150;DHT22;16962;48.646;9.026;2023-08-01T10:59:22;21.40;1.00
30150;DHT22;16962;48.646;9.026;2023-08-01T11:03:14;21.40;90.70
30150;DHT22;16962;48.646;9.026;2023-08-01T11:06:03;21.20;99.90
30150;DHT22;16962;48.646;9.026;2023-08-01T11:09:36;21.50;1.00
30150;DHT22;16962;48.646;9.026;2023-08-01T11:16:29;21.60;50.70
30150;DHT22;16962;48.646;9.026;2023-08-01T11:19:28;22.30;12.00
30150;DHT22;16962;48.646;9.026;2023-08-01T11:23:00;21.70;1.00
30150;DHT22;16962;48.646;9.026;2023-08-01T11:25:53;21.50;1.00
30150;DHT22;16962;48.646;9.026;2023-08-01T11:48:57;23.30;99.90
30150;DHT22;16962;48.646;9.026;2023-08-01T11:51:47;24.00;99.90
30150;DHT22;16962;48.646;9.026;2023-08-01T11:54:45;23.90;99.90
30150;DHT22;16962;48.646;9.026;2023-08-01T11:57:33;23.40;99.90
30150;DHT22;16962;48.646;9.026;2023-08-01T12:00:27;23.60;99.90
30150;DHT22;16962;48.646;9.026;2023-08-01T12:03:18;23.70;99.90
30150;DHT22;16962;48.646;9.026;2023-08-01T12:06:09;23.20;99.90
30150;DHT22;16962;48.646;9.026;2023-08-01T12:09:11;23.40;99.90
30150;DHT22;16962;48.646;9.026;2023-08-01T12:11:59;23.80;99.90
30150;DHT22;16962;48.646;9.026;2023-08-01T12:14:48;24.40;99.90
30150;DHT22;16962;48.646;9.026;2023-08-01T12:17:36;23.70;99.90
30150;DHT22;16962;48.646;9.026;2023-08-01T12:20:37;22.90;99.90
30150;DHT22;16962;48.646;9.026;2023-08-01T12:23:25;23.30;99.90
30150;DHT22;16962;48.646;9.026;2023-08-01T12:26:12;23.90;99.90
30150;DHT22;16962;48.646;9.026;2023-08-01T12:29:08;24.70;99.90
30150;DHT22;16962;48.646;9.026;2023-08-01T12:32:02;25.80;99.90
30150;DHT22;16962;48.646;9.026;2023-08-01T12:35:02;26.20;99.90
30150;DHT22;16962;48.646;9.026;2023-08-01T12:37:58;26.00;99.90
30150;DHT22;16962;48.646;9.026;2023-08-01T12:40:48;26.00;99.90
30150;DHT22;16962;48.646;9.026;2023-08-01T12:47:48;26.50;95.60
30150;DHT22;16962;48.646;9.026;2023-08-01T12:50:47;28.20;85.80
30150;DHT22;16962;48.646;9.026;2023-08-01T12:54:03;27.70;65.00
30150;DHT22;16962;48.646;9.026;2023-08-01T12:56:55;26.50;52.10
30150;DHT22;16962;48.646;9.026;2023-08-01T12:59:43;25.70;52.80
30150;DHT22;16962;48.646;9.026;2023-08-01T13:02:31;25.70;52.00
30150;DHT22;16962;48.646;9.026;2023-08-01T13:05:19;26.20;50.30
30150;DHT22;16962;48.646;9.026;2023-08-01T13:08:10;26.40;46.50
30150;DHT22;16962;48.646;9.026;2023-08-01T13:10:59;27.30;40.30
30150;DHT22;16962;48.646;9.026;2023-08-01T13:13:49;28.10;38.60
30150;DHT22;16962;48.646;9.026;2023-08-01T13:17:00;27.50;25.10
30150;DHT22;16962;48.646;9.026;2023-08-01T13:20:17;25.20;18.70
30150;DHT22;16962;48.646;9.026;2023-08-01T13:23:45;23.90;16.00
30150;DHT22;16962;48.646;9.026;2023-08-01T13:43:50;26.50;7.10
30150;DHT22;16962;48.646;9.026;2023-08-01T13:56:18;27.70;1.00
30150;DHT22;16962;48.646;9.026;2023-08-01T14:00:08;28.10;1.00
30150;DHT22;16962;48.646;9.026;2023-08-01T14:08:04;26.60;1.00
30150;DHT22;16962;48.646;9.026;2023-08-01T14:12:13;26.20;1.00
30150;DHT22;16962;48.646;9.026;2023-08-01T14:15:24;25.20;1.00
30150;DHT22;16962;48.646;9.026;2023-08-01T14:18:27;25.30;1.00
30150;DHT22;16962;48.646;9.026;2023-08-01T14:21:43;26.00;1.00
30150;DHT22;16962;48.646;9.026;2023-08-01T14:24:33;27.50;1.00
30150;DHT22;16962;48.646;9.026;2023-08-01T14:27:57;27.20;1.00
30150;DHT22;16962;48.646;9.026;2023-08-01T14:30:49;26.90;1.00
30150;DHT22;16962;48.646;9.026;2023-08-01T14:34:05;26.90;1.00
30150;DHT22;16962;48.646;9.026;2023-08-01T14:49:23;25.90;1.00
30150;DHT22;16962;48.646;9.026;2023-08-01T14:55:59;25.60;1.00
30150;DHT22;16962;48.646;9.026;2023-08-01T14:58:53;24.10;1.00
30150;DHT22;16962;48.646;9.026;2023-08-01T15:01:42;23.20;1.00
30150;DHT22;16962;48.646;9.026;2023-08-01T15:04:37;22.60;1.00
30150;DHT22;16962;48.646;9.026;2023-08-01T15:07:27;22.30;1.00
30150;DHT22;16962;48.646;9.026;2023-08-01T15:10:15;22.10;1.00
30150;DHT22;16962;48.646;9.026;2023-08-01T15:13:03;22.20;1.00
30150;DHT22;16962;48.646;9.026;2023-08-01T15:15:50;22.20;1.00
30150;DHT22;16962;48.646;9.026;2023-08-01T15:18:40;23.00;1.00
30150;DHT22;16962;48.646;9.026;2023-08-01T15:21:28;22.50;1.00
30150;DHT22;16962;48.646;9.026;2023-08-01T15:24:24;22.30;1.00
30150;DHT22;16962;48.646;9.026;2023-08-01T15:27:17;23.10;1.00
30150;DHT22;16962;48.646;9.026;2023-08-01T15:30:05;22.20;1.00
30150;DHT22;16962;48.646;9.026;2023-08-01T15:32:54;23.20;1.00
30150;DHT22;16962;48.646;9.026;2023-08-01T15:35:41;24.30;1.00
30150;DHT22;16962;48.646;9.026;2023-08-01T15:38:32;24.60;1.00
30150;DHT22;16962;48.646;9.026;2023-08-01T15:41:21;23.30;1.00
30150;DHT22;16962;48.646;9.026;2023-08-01T15:44:11;22.20;1.00
30150;DHT22;16962;48.646;9.026;2023-08-01T15:46:59;21.60;1.00
30150;DHT22;16962;48.646;9.026;2023-08-01T15:49:46;21.50;1.00
30150;DHT22;16962;48.646;9.026;2023-08-01T15:52:33;21.60;1.00
30150;DHT22;16962;48.646;9.026;2023-08-01T15:55:26;21.50;1.00
30150;DHT22;16962;48.646;9.026;2023-08-01T15:58:13;21.30;1.00
30150;DHT22;16962;48.646;9.026;2023-08-01T16:01:03;21.10;1.00
30150;DHT22;16962;48.646;9.026;2023-08-01T16:03:51;20.80;1.00
30150;DHT22;16962;48.646;9.026;2023-08-01T16:06:40;21.10;1.00
30150;DHT22;16962;48.646;9.026;2023-08-01T16:09:28;21.10;1.00
30150;DHT22;16962;48.646;9.026;2023-08-01T16:12:15;21.20;1.00
30150;DHT22;16962;48.646;9.026;2023-08-01T16:15:03;21.00;1.00
30150;DHT22;16962;48.646;9.026;2023-08-01T16:17:53;20.90;1.00
30150;DHT22;16962;48.646;9.026;2023-08-01T16:20:40;20.80;1.00
30150;DHT22;16962;48.646;9.026;2023-08-01T16:23:27;21.00;1.00
30150;DHT22;16962;48.646;9.026;2023-08-01T16:26:17;21.40;1.00
30150;DHT22;16962;48.646;9.026;2023-08-01T16:29:04;21.70;1.00
30150;DHT22;16962;48.646;9.026;2023-08-01T16:31:51;21.60;1.00
30150;DHT22;16962;48.646;9.026;2023-08-01T16:34:39;21.60;1.00
30150;DHT22;16962;48.646;9.026;2023-08-01T16:37:30;21.90;1.00
30150;DHT22;16962;48.646;9.026;2023-08-01T16:40:21;22.00;1.00
30150;DHT22;16962;48.646;9.026;2023-08-01T16:43:48;21.60;1.00
30150;DHT22;16962;48.646;9.026;2023-08-01T16:46:39;21.40;1.00
30150;DHT22;16962;48.646;9.026;2023-08-01T16:49:53;21.50;1.00
30150;DHT22;16962;48.646;9.026;2023-08-01T16:52:44;21.60;1.00
30150;DHT22;16962;48.646;9.026;2023-08-01T16:55:37;21.50;1.00
30150;DHT22;16962;48.646;9.026;2023-08-01T17:01:43;20.70;1.00
30150;DHT22;16962;48.646;9.026;2023-08-01T17:04:47;20.40;1.00
30150;DHT22;16962;48.646;9.026;2023-08-01T17:07:37;20.20;1.00
30150;DHT22;16962;48.646;9.026;2023-08-01T17:10:57;20.10;1.00
30150;DHT22;16962;48.646;9.026;2023-08-01T17:13:50;20.00;1.00
30150;DHT22;16962;48.646;9.026;2023-08-01T17:16:43;19.90;1.00
30150;DHT22;16962;48.646;9.026;2023-08-01T17:19:31;19.90;1.00
30150;DHT22;16962;48.646;9.026;2023-08-01T17:28:26;19.70;1.00
30150;DHT22;16962;48.646;9.026;2023-08-01T17:31:14;19.70;1.00
30150;DHT22;16962;48.646;9.026;2023-08-01T17:34:19;19.70;1.00
30150;DHT22;16962;48.646;9.026;2023-08-01T17:37:27;19.70;1.00
30150;DHT22;16962;48.646;9.026;2023-08-01T17:40:18;19.70;1.00
30150;DHT22;16962;48.646;9.026;2023-08-01T17:43:05;19.70;1.00
30150;DHT22;16962;48.646;9.026;2023-08-01T17:45:53;19.60;2.00
30150;DHT22;16962;48.646;9.026;2023-08-01T17:48:47;19.60;2.90
30150;DHT22;16962;48.646;9.026;2023-08-01T17:51:35;19.50;4.70
30150;DHT22;16962;48.646;9.026;2023-08-01T17:54:23;19.30;5.80
30150;DHT22;16962;48.646;9.026;2023-08-01T17:57:13;19.20;9.50
30150;DHT22;16962;48.646;9.026;2023-08-01T18:00:05;19.10;11.90
30150;DHT22;16962;48.646;9.026;2023-08-01T18:02:56;19.10;11.50
30150;DHT22;16962;48.646;9.026;2023-08-01T18:05:44;19.00;23.50
30150;DHT22;16962;48.646;9.026;2023-08-01T18:08:35;18.90;14.20
30150;DHT22;16962;48.646;9.026;2023-08-01T18:11:25;18.80;15.40
30150;DHT22;16962;48.646;9.026;2023-08-01T18:14:17;18.70;10.00
30150;DHT22;16962;48.646;9.026;2023-08-01T18:17:08;18.70;9.90
30150;DHT22;16962;48.646;9.026;2023-08-01T18:19:55;18.60;12.40
30150;DHT22;16962;48.646;9.026;2023-08-01T18:22:43;18.60;9.20
30150;DHT22;16962;48.646;9.026;2023-08-01T18:25:34;18.50;12.00
30150;DHT22;16962;48.646;9.026;2023-08-01T18:28:22;18.40;14.30
30150;DHT22;16962;48.646;9.026;2023-08-01T18:31:10;18.30;16.00
30150;DHT22;16962;48.646;9.026;2023-08-01T18:33:58;18.20;16.10
30150;DHT22;16962;48.646;9.026;2023-08-01T18:36:45;18.10;22.00
30150;DHT22;16962;48.646;9.026;2023-08-01T18:39:38;18.00;23.70
30150;DHT22;16962;48.646;9.026;2023-08-01T18:42:26;17.90;27.20
30150;DHT22;16962;48.646;9.026;2023-08-01T18:45:13;17.80;27.80
30150;DHT22;16962;48.646;9.026;2023-08-01T18:48:01;17.70;34.00
30150;DHT22;16962;48.646;9.026;2023-08-01T18:50:49;17.60;40.50
30150;DHT22;16962;48.646;9.026;2023-08-01T18:53:38;17.40;46.70
30150;DHT22;16962;48.646;9.026;2023-08-01T18:56:27;17.30;56.10
30150;DHT22;16962;48.646;9.026;2023-08-01T18:59:14;17.20;70.00
30150;DHT22;16962;48.646;9.026;2023-08-01T19:02:02;17.10;79.50
30150;DHT22;16962;48.646;9.026;2023-08-01T19:04:50;17.10;90.60
30150;DHT22;16962;48.646;9.026;2023-08-01T19:07:37;17.10;94.20
30150;DHT22;16962;48.646;9.026;2023-08-01T19:10:25;17.10;99.80
30150;DHT22;16962;48.646;9.026;2023-08-01T19:13:12;17.10;99.90
30150;DHT22;16962;48.646;9.026;2023-08-01T19:16:00;17.10;99.90
30150;DHT22;16962;48.646;9.026;2023-08-01T19:18:51;17.10;99.90
30150;DHT22;16962;48.646;9.026;2023-08-01T19:21:39;17.20;99.90
30150;DHT22;16962;48.646;9.026;2023-08-01T19:24:27;17.30;99.90
30150;DHT22;16962;48.646;9.026;2023-08-01T19:27:15;17.40;99.90
30150;DHT22;16962;48.646;9.026;2023-08-01T19:30:02;17.50;99.90
30150;DHT22;16962;48.646;9.026;2023-08-01T19:32:51;17.50;99.90
30150;DHT22;16962;48.646;9.026;2023-08-01T19:35:40;17.50;99.90
30150;DHT22;16962;48.646;9.026;2023-08-01T19:38:28;17.50;99.90
30150;DHT22;16962;48.646;9.026;2023-08-01T19:41:15;17.50;99.90
30150;DHT22;16962;48.646;9.026;2023-08-01T19:44:03;17.50;99.90
30150;DHT22;16962;48.646;9.026;2023-08-01T19:46:51;17.50;99.90
30150;DHT22;16962;48.646;9.026;2023-08-01T19:49:39;17.60;99.90
30150;DHT22;16962;48.646;9.026;2023-08-01T19:52:48;17.50;99.90
30150;DHT22;16962;48.646;9.026;2023-08-01T19:55:53;17.50;99.90
30150;DHT22;16962;48.646;9.026;2023-08-01T19:58:47;17.60;99.90
30150;DHT22;16962;48.646;9.026;2023-08-01T20:01:34;17.60;99.90
30150;DHT22;16962;48.646;9.026;2023-08-01T20:04:22;17.60;99.90
30150;DHT22;16962;48.646;9.026;2023-08-01T20:07:26;17.50;99.90
30150;DHT22;16962;48.646;9.026;2023-08-01T20:10:32;17.50;99.90
30150;DHT22;16962;48.646;9.026;2023-08-01T20:13:33;17.40;99.90
30150;DHT22;16962;48.646;9.026;2023-08-01T20:16:21;17.30;99.90
30150;DHT22;16962;48.646;9.026;2023-08-01T20:20:21;17.10;99.90
30150;DHT22;16962;48.646;9.026;2023-08-01T20:23:24;17.00;99.90
30150;DHT22;16962;48.646;9.026;2023-08-01T20:26:13;16.90;99.90
30150;DHT22;16962;48.646;9.026;2023-08-01T20:29:00;16.80;99.90
30150;DHT22;16962;48.646;9.026;2023-08-01T20:31:48;16.70;99.90
30150;DHT22;16962;48.646;9.026;2023-08-01T20:34:35;16.60;99.90
30150;DHT22;16962;48.646;9.026;2023-08-01T20:37:23;16.50;99.90
30150;DHT22;16962;48.646;9.026;2023-08-01T20:40:18;16.40;99.90
30150;DHT22;16962;48.646;9.026;2023-08-01T20:43:05;16.30;99.90
30150;DHT22;16962;48.646;9.026;2023-08-01T20:45:52;16.20;99.90
30150;DHT22;16962;48.646;9.026;2023-08-01T20:48:46;16.20;99.90
30150;DHT22;16962;48.646;9.026;2023-08-01T20:51:35;16.10;99.90
30150;DHT22;16962;48.646;9.026;2023-08-01T20:54:25;16.10;99.90
30150;DHT22;16962;48.646;9.026;2023-08-01T20:57:12;16.00;99.90
30150;DHT22;16962;48.646;9.026;2023-08-01T21:00:00;15.80;99.90